Time;durP1;ratioP1;P1;durP2;ratioP2;P2;SDS_P1;SDS_P2;PMS_P1;PMS_P2;Temp;Humidity;BMP_temperature;BMP_pressure;BME280_temperature;BME280_humidity;BME280_pressure;Samples;Min_cycle;Max_cycle;Signal;HPM_P1;HPM_P2
2022/12/12 00:02:28;;;;;;;15.23;7.27;;;;;;;;;;5108841;28;20218;-64
2022/12/12 00:04:56;;;;;;;12.10;7.37;;;;;;;;;;5098235;28;20211;-64
2022/12/12 00:07:23;;;;;;;14.50;7.87;;;;;;;;;;5094017;28;20720;-65
2022/12/12 00:09:50;;;;;;;16.43;7.57;;;;;;;;;;5096516;28;20704;-65
2022/12/12 00:12:18;;;;;;;12.40;6.23;;;;;;;;;;5113114;28;20672;-64
2022/12/12 00:14:45;;;;;;;14.47;7.53;;;;;;;;;;5111107;27;20205;-64
2022/12/12 00:17:12;;;;;;;14.20;8.33;;;;;;;;;;5105840;27;20200;-65
2022/12/12 00:19:42;;;;;;;15.80;7.93;;;;;;;;;;5112518;27;20839;-64
2022/12/12 00:22:09;;;;;;;13.23;7.03;;;;;;;;;;5113186;28;20333;-65
2022/12/12 00:24:36;;;;;;;9.83;5.67;;;;;;;;;;5115572;28;20209;-64
2022/12/12 00:27:03;;;;;;;16.47;6.03;;;;;;;;;;5112045;28;20232;-64
2022/12/12 00:29:30;;;;;;;13.53;6.57;;;;;;;;;;5110399;28;20201;-64
2022/12/12 00:31:57;;;;;;;9.70;5.80;;;;;;;;;;5115890;27;20205;-64
2022/12/12 00:34:24;;;;;;;14.47;7.40;;;;;;;;;;5120524;27;20300;-64
2022/12/12 00:36:53;;;;;;;13.70;7.87;;;;;;;;;;5120109;27;20205;-65
2022/12/12 00:39:21;;;;;;;12.07;5.80;;;;;;;;;;5117467;27;20202;-65
2022/12/12 00:41:49;;;;;;;15.83;6.27;;;;;;;;;;5113826;27;20608;-65
2022/12/12 00:44:17;;;;;;;15.90;7.17;;;;;;;;;;5118048;27;20204;-65
2022/12/12 00:46:45;;;;;;;12.93;5.33;;;;;;;;;;5116298;27;20235;-65
2022/12/12 00:49:13;;;;;;;12.10;6.03;;;;;;;;;;5115678;27;20205;-65
2022/12/12 00:51:40;;;;;;;14.20;6.73;;;;;;;;;;5117286;27;20271;-65
2022/12/12 00:54:09;;;;;;;13.97;7.13;;;;;;;;;;5119895;27;20644;-65
2022/12/12 00:56:36;;;;;;;11.47;7.13;;;;;;;;;;5112388;27;20309;-65
2022/12/12 00:59:03;;;;;;;13.90;6.73;;;;;;;;;;5098450;27;20571;-65
2022/12/12 01:01:31;;;;;;;12.70;6.80;;;;;;;;;;5098290;28;20221;-65
2022/12/12 01:03:59;;;;;;;12.23;6.17;;;;;;;;;;5107024;28;20573;-65
2022/12/12 01:06:26;;;;;;;11.97;7.63;;;;;;;;;;5093315;28;20771;-64
2022/12/12 01:08:54;;;;;;;13.33;7.50;;;;;;;;;;5108921;28;20206;-64
2022/12/12 01:11:22;;;;;;;11.13;6.60;;;;;;;;;;5094175;28;20673;-64
2022/12/12 01:13:50;;;;;;;13.67;6.13;;;;;;;;;;5092200;28;20646;-65
2022/12/12 01:16:18;;;;;;;14.47;6.23;;;;;;;;;;5097595;28;20217;-65
2022/12/12 01:18:45;;;;;;;12.37;6.60;;;;;;;;;;5101057;28;20202;-64
2022/12/12 01:21:13;;;;;;;15.47;6.37;;;;;;;;;;5099767;28;20205;-65
2022/12/12 01:23:41;;;;;;;13.27;6.43;;;;;;;;;;5094992;28;20210;-64
2022/12/12 01:26:11;;;;;;;17.97;7.87;;;;;;;;;;5089554;28;20680;-65
2022/12/12 01:28:39;;;;;;;13.53;7.17;;;;;;;;;;5090367;28;20222;-64
2022/12/12 01:31:07;;;;;;;12.20;6.57;;;;;;;;;;5095947;28;20210;-64
2022/12/12 01:33:34;;;;;;;18.00;7.23;;;;;;;;;;5106211;28;20230;-64
2022/12/12 01:36:01;;;;;;;13.90;7.07;;;;;;;;;;5097156;28;20210;-64
2022/12/12 01:38:28;;;;;;;12.30;6.17;;;;;;;;;;5104329;28;20666;-64
2022/12/12 01:40:55;;;;;;;11.40;5.90;;;;;;;;;;5102160;28;20593;-64
2022/12/12 01:43:25;;;;;;;10.50;6.27;;;;;;;;;;5109153;28;20703;-64
2022/12/12 01:46:07;;;;;;;15.07;5.90;;;;;;;;;;5108345;28;20258;-64
2022/12/12 01:48:37;;;;;;;13.27;7.17;;;;;;;;;;5084794;28;20206;-64
2022/12/12 01:51:07;;;;;;;7.10;5.43;;;;;;;;;;5089521;28;20213;-65
2022/12/12 01:53:35;;;;;;;11.07;4.87;;;;;;;;;;5089677;28;20202;-64
2022/12/12 01:56:03;;;;;;;6.83;3.83;;;;;;;;;;5088828;28;20230;-65
2022/12/12 01:58:31;;;;;;;6.70;3.63;;;;;;;;;;5089423;28;20198;-64
2022/12/12 02:00:58;;;;;;;13.23;5.83;;;;;;;;;;5088893;28;20207;-64
2022/12/12 02:03:26;;;;;;;14.80;6.33;;;;;;;;;;5089681;28;20214;-64
2022/12/12 02:05:57;;;;;;;18.17;6.90;;;;;;;;;;5089220;28;20221;-64
2022/12/12 02:08:24;;;;;;;13.67;6.23;;;;;;;;;;5089297;28;20239;-64
2022/12/12 02:10:51;;;;;;;11.83;7.17;;;;;;;;;;5089295;28;20926;-64
2022/12/12 02:13:20;;;;;;;15.20;6.30;;;;;;;;;;5089847;28;20210;-64
2022/12/12 02:15:55;;;;;;;15.00;6.77;;;;;;;;;;5100084;28;20206;-64
2022/12/12 02:18:29;;;;;;;12.60;6.37;;;;;;;;;;5102909;28;20222;-64
2022/12/12 02:21:02;;;;;;;14.27;5.13;;;;;;;;;;5101372;28;20989;-64
2022/12/12 02:23:48;;;;;;;8.93;5.77;;;;;;;;;;5103456;28;20220;-64
2022/12/12 02:26:33;;;;;;;11.47;5.63;;;;;;;;;;5095036;28;20278;-64
2022/12/12 02:29:15;;;;;;;11.03;5.30;;;;;;;;;;5086517;28;20202;-67
2022/12/12 02:31:47;;;;;;;17.60;5.93;;;;;;;;;;5094255;28;20202;-64
2022/12/12 02:34:19;;;;;;;12.33;6.23;;;;;;;;;;5104516;28;20267;-64
2022/12/12 02:36:49;;;;;;;11.93;6.13;;;;;;;;;;5109132;28;20253;-64
2022/12/12 02:39:19;;;;;;;12.13;5.47;;;;;;;;;;5096515;28;20213;-64
2022/12/12 02:41:51;;;;;;;10.47;7.13;;;;;;;;;;5104407;28;20213;-64
2022/12/12 02:44:20;;;;;;;13.57;6.20;;;;;;;;;;5091026;28;20220;-64
2022/12/12 02:46:53;;;;;;;14.53;6.17;;;;;;;;;;5100989;28;20222;-64
2022/12/12 02:49:22;;;;;;;10.60;5.57;;;;;;;;;;5091431;28;20667;-64
2022/12/12 02:51:50;;;;;;;11.93;4.03;;;;;;;;;;5095521;28;20217;-64
2022/12/12 02:54:18;;;;;;;7.13;4.37;;;;;;;;;;5097043;28;20574;-64
2022/12/12 02:56:55;;;;;;;12.77;6.63;;;;;;;;;;5088739;28;20214;-64
2022/12/12 02:59:24;;;;;;;11.37;5.93;;;;;;;;;;5103189;28;20216;-64
2022/12/12 03:02:18;;;;;;;10.33;5.17;;;;;;;;;;5089457;28;20235;-64
2022/12/12 03:07:47;;;;;;;11.00;5.13;;;;;;;;;;5107939;28;20239;-64
2022/12/12 03:10:17;;;;;;;12.93;6.07;;;;;;;;;;5106896;28;20314;-64
2022/12/12 03:12:50;;;;;;;12.17;5.17;;;;;;;;;;5089172;28;20214;-64
2022/12/12 03:15:22;;;;;;;10.23;5.30;;;;;;;;;;5101572;28;20225;-64
2022/12/12 03:17:54;;;;;;;9.50;4.50;;;;;;;;;;5090600;28;20242;-64
2022/12/12 03:20:25;;;;;;;10.23;5.33;;;;;;;;;;5101621;28;20204;-64
2022/12/12 03:22:55;;;;;;;12.80;6.67;;;;;;;;;;5098989;28;20203;-64
2022/12/12 03:25:25;;;;;;;14.13;5.03;;;;;;;;;;5102645;28;20236;-64
2022/12/12 03:27:54;;;;;;;10.43;5.13;;;;;;;;;;5098280;28;20230;-64
2022/12/12 03:30:22;;;;;;;9.90;7.10;;;;;;;;;;5091469;28;20578;-64
2022/12/12 03:32:53;;;;;;;11.40;5.47;;;;;;;;;;5092625;28;20210;-64
2022/12/12 03:35:21;;;;;;;13.60;5.63;;;;;;;;;;5096688;28;20212;-64
2022/12/12 03:37:50;;;;;;;12.00;6.23;;;;;;;;;;5105193;28;20201;-64
2022/12/12 03:40:19;;;;;;;10.73;5.23;;;;;;;;;;5097343;28;20213;-65
2022/12/12 03:42:48;;;;;;;13.13;6.13;;;;;;;;;;5093595;28;20198;-65
2022/12/12 03:45:18;;;;;;;10.37;5.77;;;;;;;;;;5094860;28;20203;-65
2022/12/12 03:47:48;;;;;;;7.90;5.40;;;;;;;;;;5103083;28;20222;-65
2022/12/12 03:50:20;;;;;;;11.53;5.93;;;;;;;;;;5103414;28;20205;-65
2022/12/12 03:52:49;;;;;;;9.67;4.73;;;;;;;;;;5094744;28;20221;-65
2022/12/12 03:55:19;;;;;;;10.70;6.00;;;;;;;;;;5088931;28;20317;-65
2022/12/12 03:57:49;;;;;;;14.40;6.53;;;;;;;;;;5091889;28;20305;-65
2022/12/12 04:00:17;;;;;;;16.90;6.10;;;;;;;;;;5089790;28;20209;-65
2022/12/12 04:02:50;;;;;;;9.57;4.50;;;;;;;;;;5087933;28;20649;-64
2022/12/12 04:05:21;;;;;;;12.77;5.67;;;;;;;;;;5091119;28;20201;-64
2022/12/12 04:07:50;;;;;;;6.50;4.80;;;;;;;;;;5102780;28;20233;-65
2022/12/12 04:13:05;;;;;;;12.93;5.77;;;;;;;;;;5090932;28;20201;-63
2022/12/12 04:15:48;;;;;;;11.27;6.13;;;;;;;;;;5088636;28;20681;-63
2022/12/12 04:18:19;;;;;;;10.33;5.50;;;;;;;;;;5096374;28;20298;-63
2022/12/12 04:23:42;;;;;;;8.67;4.23;;;;;;;;;;5094000;28;20205;-63
2022/12/12 04:29:02;;;;;;;10.53;5.80;;;;;;;;;;5087686;28;20205;-64
2022/12/12 04:31:31;;;;;;;9.93;5.67;;;;;;;;;;5097039;28;20202;-64
2022/12/12 04:34:02;;;;;;;7.47;5.30;;;;;;;;;;5097509;28;20198;-63
2022/12/12 04:36:32;;;;;;;13.07;5.80;;;;;;;;;;5098644;28;20815;-63
2022/12/12 04:39:00;;;;;;;10.33;4.83;;;;;;;;;;5087493;28;20208;-64
2022/12/12 04:41:28;;;;;;;10.37;5.17;;;;;;;;;;5097272;28;20566;-64
2022/12/12 04:43:56;;;;;;;7.03;4.97;;;;;;;;;;5089559;28;20650;-64
2022/12/12 04:46:25;;;;;;;7.63;4.23;;;;;;;;;;5094961;28;20206;-64
2022/12/12 04:48:53;;;;;;;10.90;6.27;;;;;;;;;;5101278;28;20685;-64
2022/12/12 04:51:23;;;;;;;10.93;5.20;;;;;;;;;;5096931;28;20195;-64
2022/12/12 04:53:55;;;;;;;9.03;4.00;;;;;;;;;;5096530;28;20198;-63
2022/12/12 04:56:24;;;;;;;12.33;5.27;;;;;;;;;;5088659;28;20222;-63
2022/12/12 04:58:52;;;;;;;10.80;5.60;;;;;;;;;;5087567;28;20199;-64
2022/12/12 05:01:22;;;;;;;10.23;4.70;;;;;;;;;;5091690;28;20202;-64
2022/12/12 05:03:50;;;;;;;10.47;5.47;;;;;;;;;;5095232;28;20610;-64
2022/12/12 05:06:20;;;;;;;8.37;5.50;;;;;;;;;;5088880;28;20663;-63
2022/12/12 05:08:48;;;;;;;12.90;6.87;;;;;;;;;;5090834;28;20233;-63
2022/12/12 05:11:20;;;;;;;13.63;6.23;;;;;;;;;;5100096;28;20202;-64
2022/12/12 05:13:47;;;;;;;11.43;5.80;;;;;;;;;;5101444;28;20796;-63
2022/12/12 05:16:18;;;;;;;17.23;5.90;;;;;;;;;;5089958;28;20195;-64
2022/12/12 05:18:45;;;;;;;8.50;5.07;;;;;;;;;;5097312;28;20195;-63
2022/12/12 05:21:12;;;;;;;8.53;5.47;;;;;;;;;;5102023;27;20546;-63
2022/12/12 05:23:39;;;;;;;6.87;4.90;;;;;;;;;;5105287;28;20206;-63
2022/12/12 05:26:07;;;;;;;8.13;4.90;;;;;;;;;;5102198;28;20203;-63
2022/12/12 05:28:35;;;;;;;12.70;6.17;;;;;;;;;;5105641;28;20223;-63
2022/12/12 05:31:02;;;;;;;8.83;5.57;;;;;;;;;;5104008;28;20199;-63
2022/12/12 05:33:29;;;;;;;7.87;5.13;;;;;;;;;;5095515;28;20664;-63
2022/12/12 05:35:56;;;;;;;8.47;4.43;;;;;;;;;;5103077;28;20806;-64
2022/12/12 05:38:23;;;;;;;8.83;5.10;;;;;;;;;;5106715;28;20197;-65
2022/12/12 05:40:50;;;;;;;11.67;5.47;;;;;;;;;;5100852;28;20655;-64
2022/12/12 05:43:18;;;;;;;12.57;6.27;;;;;;;;;;5102300;28;20210;-65
2022/12/12 05:45:46;;;;;;;9.27;5.53;;;;;;;;;;5100499;28;20218;-64
2022/12/12 05:48:13;;;;;;;8.73;5.77;;;;;;;;;;5105947;28;20221;-64
2022/12/12 05:50:40;;;;;;;8.03;5.10;;;;;;;;;;5088821;28;20210;-63
2022/12/12 05:53:07;;;;;;;8.87;5.17;;;;;;;;;;5085130;28;20217;-64
2022/12/12 05:55:35;;;;;;;7.70;4.00;;;;;;;;;;5088343;28;20305;-63
2022/12/12 05:58:02;;;;;;;13.63;6.40;;;;;;;;;;5095555;28;20286;-64
2022/12/12 06:00:30;;;;;;;9.30;5.47;;;;;;;;;;5105585;28;20299;-64
2022/12/12 06:02:58;;;;;;;10.60;4.97;;;;;;;;;;5106176;28;20285;-64
2022/12/12 06:05:26;;;;;;;7.07;4.87;;;;;;;;;;5108258;28;20206;-64
2022/12/12 06:07:53;;;;;;;5.87;4.37;;;;;;;;;;5101048;28;20247;-63
2022/12/12 06:10:21;;;;;;;11.97;5.30;;;;;;;;;;5091695;28;20289;-64
2022/12/12 06:12:48;;;;;;;5.27;4.77;;;;;;;;;;5097914;28;20202;-63
2022/12/12 06:15:15;;;;;;;11.27;5.60;;;;;;;;;;5106398;28;20206;-63
2022/12/12 06:17:43;;;;;;;12.37;5.03;;;;;;;;;;5103489;28;20215;-66
2022/12/12 06:20:12;;;;;;;5.50;3.70;;;;;;;;;;5092286;28;20677;-66
2022/12/12 06:22:41;;;;;;;8.93;4.37;;;;;;;;;;5106303;27;20198;-65
2022/12/12 06:25:08;;;;;;;7.33;4.47;;;;;;;;;;5122169;27;20289;-66
2022/12/12 06:27:35;;;;;;;8.00;4.47;;;;;;;;;;5104118;28;20286;-66
2022/12/12 06:30:02;;;;;;;5.80;3.87;;;;;;;;;;5104171;28;20213;-66
2022/12/12 06:32:30;;;;;;;7.17;5.23;;;;;;;;;;5086066;28;20210;-65
2022/12/12 06:34:57;;;;;;;9.10;4.53;;;;;;;;;;5104187;27;20540;-64
2022/12/12 06:37:25;;;;;;;9.03;4.97;;;;;;;;;;5088930;28;20206;-62
2022/12/12 06:39:52;;;;;;;7.13;4.80;;;;;;;;;;5087186;28;20205;-61
2022/12/12 06:42:19;;;;;;;9.10;5.43;;;;;;;;;;5103815;28;20205;-62
2022/12/12 06:44:46;;;;;;;8.33;4.03;;;;;;;;;;5099954;27;20217;-62
2022/12/12 06:47:13;;;;;;;8.20;4.77;;;;;;;;;;5088956;28;20702;-61
2022/12/12 06:49:41;;;;;;;5.60;4.67;;;;;;;;;;5106710;28;20783;-61
2022/12/12 06:52:08;;;;;;;13.17;5.87;;;;;;;;;;5108998;27;20209;-62
2022/12/12 06:54:36;;;;;;;13.63;5.60;;;;;;;;;;5108895;27;20206;-61
2022/12/12 06:57:03;;;;;;;12.27;4.73;;;;;;;;;;5109018;28;20210;-62
2022/12/12 06:59:30;;;;;;;9.33;5.43;;;;;;;;;;5108541;27;20203;-62
2022/12/12 07:01:57;;;;;;;6.90;4.23;;;;;;;;;;5108582;28;20307;-62
2022/12/12 07:04:25;;;;;;;10.30;5.67;;;;;;;;;;5108385;28;20288;-62
2022/12/12 07:06:53;;;;;;;7.37;3.90;;;;;;;;;;5108494;28;20238;-61
2022/12/12 07:09:21;;;;;;;10.63;5.17;;;;;;;;;;5108403;28;20327;-61
2022/12/12 07:11:49;;;;;;;9.57;5.13;;;;;;;;;;5108189;28;20210;-61
2022/12/12 07:14:16;;;;;;;13.10;6.23;;;;;;;;;;5107949;28;20726;-61
2022/12/12 07:16:43;;;;;;;9.60;5.27;;;;;;;;;;5107612;28;20211;-62
2022/12/12 07:19:10;;;;;;;9.60;4.73;;;;;;;;;;5107422;28;20656;-62
2022/12/12 07:21:38;;;;;;;16.20;5.37;;;;;;;;;;5107181;28;20210;-62
2022/12/12 07:24:06;;;;;;;10.97;4.80;;;;;;;;;;5107749;27;20257;-61
2022/12/12 07:26:33;;;;;;;7.13;4.60;;;;;;;;;;5107642;28;20205;-62
2022/12/12 07:29:04;;;;;;;8.80;5.20;;;;;;;;;;5107430;28;20225;-62
2022/12/12 07:31:31;;;;;;;7.33;5.20;;;;;;;;;;5107490;28;20240;-62
2022/12/12 07:33:58;;;;;;;8.90;4.90;;;;;;;;;;5107617;28;20208;-62
2022/12/12 07:36:25;;;;;;;8.77;5.30;;;;;;;;;;5107782;28;20213;-62
2022/12/12 07:38:52;;;;;;;12.03;5.83;;;;;;;;;;5107238;28;20661;-61
2022/12/12 07:41:20;;;;;;;7.33;4.70;;;;;;;;;;5107223;28;20218;-62
2022/12/12 07:43:48;;;;;;;11.90;4.57;;;;;;;;;;5107556;28;20289;-63
2022/12/12 07:46:18;;;;;;;8.00;5.50;;;;;;;;;;5107189;28;20383;-66
2022/12/12 07:48:46;;;;;;;8.50;4.93;;;;;;;;;;5107262;28;20230;-64
2022/12/12 07:51:14;;;;;;;9.37;5.13;;;;;;;;;;5106986;28;20212;-63
2022/12/12 07:53:41;;;;;;;7.70;4.17;;;;;;;;;;5107126;28;20275;-63
2022/12/12 07:56:09;;;;;;;6.87;4.93;;;;;;;;;;5107186;28;20229;-62
2022/12/12 07:58:36;;;;;;;6.60;3.87;;;;;;;;;;5106815;28;20262;-63
2022/12/12 08:01:08;;;;;;;7.83;5.27;;;;;;;;;;5107333;28;20202;-62
2022/12/12 08:03:37;;;;;;;11.03;5.63;;;;;;;;;;5107493;28;20216;-63
2022/12/12 08:06:05;;;;;;;11.73;5.43;;;;;;;;;;5107016;28;20213;-63
2022/12/12 08:08:32;;;;;;;8.80;5.47;;;;;;;;;;5107447;28;20241;-63
2022/12/12 08:10:59;;;;;;;6.57;4.07;;;;;;;;;;5107522;28;20210;-62
2022/12/12 08:13:26;;;;;;;14.17;6.77;;;;;;;;;;5107739;28;20707;-64
2022/12/12 08:15:53;;;;;;;8.37;4.60;;;;;;;;;;5107343;28;20606;-63
2022/12/12 08:18:20;;;;;;;9.40;5.63;;;;;;;;;;5107585;28;20205;-63
2022/12/12 08:20:48;;;;;;;16.30;9.20;;;;;;;;;;5107487;28;20555;-65
2022/12/12 08:23:15;;;;;;;15.90;7.57;;;;;;;;;;5107605;28;20206;-65
2022/12/12 08:25:43;;;;;;;13.70;6.47;;;;;;;;;;5107572;28;20217;-66
2022/12/12 08:28:10;;;;;;;20.30;6.93;;;;;;;;;;5107360;28;20253;-64
2022/12/12 08:30:37;;;;;;;13.03;6.03;;;;;;;;;;5107296;28;20308;-65
2022/12/12 08:33:04;;;;;;;5.27;3.77;;;;;;;;;;5107588;28;20210;-65
2022/12/12 08:35:31;;;;;;;11.47;7.00;;;;;;;;;;5107597;28;20217;-65
2022/12/12 08:38:00;;;;;;;11.57;6.67;;;;;;;;;;5107517;28;20220;-66
2022/12/12 08:40:27;;;;;;;10.43;5.83;;;;;;;;;;5106989;28;20711;-63
2022/12/12 08:42:54;;;;;;;11.33;6.37;;;;;;;;;;5107537;28;20244;-63
2022/12/12 08:45:21;;;;;;;8.40;5.10;;;;;;;;;;5107511;28;20217;-63
2022/12/12 08:47:48;;;;;;;7.47;4.93;;;;;;;;;;5105092;28;20660;-64
2022/12/12 08:50:15;;;;;;;11.20;5.67;;;;;;;;;;5106942;28;20216;-64
2022/12/12 08:52:42;;;;;;;15.17;6.53;;;;;;;;;;5109013;28;20681;-63
2022/12/12 08:55:11;;;;;;;8.27;4.37;;;;;;;;;;5111184;27;20231;-63
2022/12/12 08:57:38;;;;;;;9.13;4.83;;;;;;;;;;5111215;27;20702;-63
2022/12/12 09:00:05;;;;;;;9.93;5.40;;;;;;;;;;5110590;28;20215;-63
2022/12/12 09:02:32;;;;;;;15.33;6.47;;;;;;;;;;5111163;28;20209;-63
2022/12/12 09:04:59;;;;;;;16.33;6.53;;;;;;;;;;5111448;27;20679;-63
2022/12/12 09:07:26;;;;;;;12.27;6.10;;;;;;;;;;5109489;28;20262;-63
2022/12/12 09:09:54;;;;;;;12.47;5.73;;;;;;;;;;5110200;28;20234;-63
2022/12/12 09:12:22;;;;;;;12.47;6.43;;;;;;;;;;5110308;28;20930;-63
2022/12/12 09:14:49;;;;;;;9.17;5.70;;;;;;;;;;5110242;28;20213;-63
2022/12/12 09:17:16;;;;;;;14.57;7.40;;;;;;;;;;5110367;28;20214;-63
2022/12/12 09:19:44;;;;;;;15.10;6.93;;;;;;;;;;5110037;28;20205;-63
2022/12/12 09:22:11;;;;;;;10.37;6.00;;;;;;;;;;5110334;28;20208;-66
2022/12/12 09:24:38;;;;;;;15.67;6.40;;;;;;;;;;5110013;28;20231;-64
2022/12/12 09:27:05;;;;;;;19.20;7.30;;;;;;;;;;5110480;28;20220;-63
2022/12/12 09:29:34;;;;;;;14.50;6.17;;;;;;;;;;5109969;28;20232;-64
2022/12/12 09:32:05;;;;;;;16.10;7.17;;;;;;;;;;5109831;28;20212;-63
2022/12/12 09:34:32;;;;;;;13.00;6.37;;;;;;;;;;5109991;28;20224;-63
2022/12/12 09:36:59;;;;;;;15.27;6.00;;;;;;;;;;5110345;28;20212;-64
2022/12/12 09:39:26;;;;;;;14.80;7.27;;;;;;;;;;5109972;28;20994;-63
2022/12/12 09:41:53;;;;;;;15.63;6.53;;;;;;;;;;5109784;28;20247;-64
2022/12/12 09:44:21;;;;;;;13.33;6.23;;;;;;;;;;5109640;28;20208;-63
2022/12/12 09:46:52;;;;;;;13.27;6.07;;;;;;;;;;5109605;28;20216;-63
2022/12/12 09:49:23;;;;;;;11.67;7.00;;;;;;;;;;5109617;27;20316;-63
2022/12/12 09:51:51;;;;;;;12.63;6.40;;;;;;;;;;5109790;28;20672;-63
2022/12/12 09:54:20;;;;;;;8.03;5.03;;;;;;;;;;5110595;28;20247;-63
2022/12/12 09:57:08;;;;;;;12.93;5.83;;;;;;;;;;5110413;28;20212;-63
2022/12/12 09:59:38;;;;;;;12.47;6.40;;;;;;;;;;5100875;28;20197;-63
2022/12/12 10:02:17;;;;;;;17.10;7.07;;;;;;;;;;5101660;28;20884;-63
2022/12/12 10:04:54;;;;;;;10.50;5.53;;;;;;;;;;5089253;28;20213;-63
2022/12/12 10:07:25;;;;;;;9.97;6.03;;;;;;;;;;5105607;28;20255;-64
2022/12/12 10:09:57;;;;;;;13.77;6.37;;;;;;;;;;5110092;28;20236;-63
2022/12/12 10:12:25;;;;;;;12.73;5.37;;;;;;;;;;5108681;28;20228;-65
2022/12/12 10:14:54;;;;;;;11.43;6.27;;;;;;;;;;5108029;28;20205;-63
2022/12/12 10:17:29;;;;;;;12.33;6.57;;;;;;;;;;5105201;27;20696;-64
2022/12/12 10:19:58;;;;;;;12.07;5.83;;;;;;;;;;5107186;27;20572;-64
2022/12/12 10:22:29;;;;;;;10.80;6.07;;;;;;;;;;5110089;27;20201;-63
2022/12/12 10:24:58;;;;;;;10.00;6.37;;;;;;;;;;5096225;28;20217;-60
2022/12/12 10:27:25;;;;;;;13.47;7.27;;;;;;;;;;5092193;28;20593;-65
2022/12/12 10:29:53;;;;;;;9.90;5.00;;;;;;;;;;5109370;28;20239;-63
2022/12/12 10:32:28;;;;;;;10.93;5.50;;;;;;;;;;5101593;28;20559;-63
2022/12/12 10:35:02;;;;;;;11.03;6.73;;;;;;;;;;5089372;28;20201;-63
2022/12/12 10:37:35;;;;;;;17.93;6.80;;;;;;;;;;5095025;28;20221;-61
2022/12/12 10:40:07;;;;;;;13.17;6.23;;;;;;;;;;5089265;28;20206;-64
2022/12/12 10:42:36;;;;;;;11.13;5.53;;;;;;;;;;5097199;27;20240;-63
2022/12/12 10:45:15;;;;;;;11.73;6.80;;;;;;;;;;5108000;27;20216;-62
2022/12/12 10:47:43;;;;;;;14.80;8.57;;;;;;;;;;5123809;27;20224;-63
2022/12/12 10:50:17;;;;;;;12.47;6.77;;;;;;;;;;5128378;27;20235;-62
2022/12/12 10:52:44;;;;;;;14.17;6.57;;;;;;;;;;5109502;28;20254;-62
2022/12/12 10:55:18;;;;;;;11.97;6.00;;;;;;;;;;5109224;28;20240;-63
2022/12/12 10:57:45;;;;;;;9.07;5.63;;;;;;;;;;5108684;28;20209;-63
2022/12/12 11:00:17;;;;;;;13.47;5.83;;;;;;;;;;5108713;28;20658;-62
2022/12/12 11:02:45;;;;;;;12.93;6.90;;;;;;;;;;5097214;28;20229;-63
2022/12/12 11:05:17;;;;;;;11.07;5.30;;;;;;;;;;5090179;28;20201;-64
2022/12/12 11:07:45;;;;;;;9.53;5.73;;;;;;;;;;5088862;28;20234;-64
2022/12/12 11:10:24;;;;;;;14.47;6.93;;;;;;;;;;5104222;27;20224;-63
2022/12/12 11:12:58;;;;;;;12.23;5.43;;;;;;;;;;5109150;27;20220;-63
2022/12/12 11:15:31;;;;;;;11.07;5.77;;;;;;;;;;5087883;28;20207;-63
2022/12/12 11:17:59;;;;;;;9.83;5.67;;;;;;;;;;5088590;28;20582;-63
2022/12/12 11:20:27;;;;;;;11.93;6.43;;;;;;;;;;5106105;28;20197;-63
2022/12/12 11:22:55;;;;;;;10.03;5.37;;;;;;;;;;5108884;28;20258;-62
2022/12/12 11:25:28;;;;;;;10.03;5.20;;;;;;;;;;5092653;28;20201;-63
2022/12/12 11:27:56;;;;;;;15.43;6.23;;;;;;;;;;5088645;28;20205;-62
2022/12/12 11:30:28;;;;;;;14.33;6.80;;;;;;;;;;5089932;28;20224;-62
2022/12/12 11:32:56;;;;;;;9.03;5.73;;;;;;;;;;5087899;28;20206;-62
2022/12/12 11:35:26;;;;;;;11.60;5.00;;;;;;;;;;5089149;28;20668;-62
2022/12/12 11:37:55;;;;;;;10.93;5.80;;;;;;;;;;5088192;28;20319;-61
2022/12/12 11:40:24;;;;;;;13.47;6.33;;;;;;;;;;5102034;28;20197;-62
2022/12/12 11:42:51;;;;;;;8.93;5.57;;;;;;;;;;5108395;28;20220;-64
2022/12/12 11:45:23;;;;;;;11.53;6.43;;;;;;;;;;5104874;28;20695;-63
2022/12/12 11:47:50;;;;;;;14.47;5.80;;;;;;;;;;5108260;28;20213;-63
2022/12/12 11:50:22;;;;;;;12.57;5.63;;;;;;;;;;5093466;28;20232;-62
2022/12/12 11:52:52;;;;;;;10.77;5.60;;;;;;;;;;5088151;28;20214;-62
2022/12/12 11:55:25;;;;;;;17.07;6.37;;;;;;;;;;5088764;28;20230;-64
2022/12/12 11:57:57;;;;;;;11.67;5.03;;;;;;;;;;5087740;28;20215;-62
2022/12/12 12:00:25;;;;;;;13.87;6.40;;;;;;;;;;5088871;28;20206;-63
2022/12/12 12:02:59;;;;;;;11.97;5.77;;;;;;;;;;5087931;28;20211;-62
2022/12/12 12:05:30;;;;;;;9.93;4.87;;;;;;;;;;5088867;28;20205;-62
2022/12/12 12:08:09;;;;;;;14.97;5.27;;;;;;;;;;5087265;28;20352;-62
2022/12/12 12:10:51;;;;;;;13.03;5.90;;;;;;;;;;5105071;28;20240;-62
2022/12/12 12:13:24;;;;;;;8.57;5.47;;;;;;;;;;5107734;28;20214;-62
2022/12/12 12:15:54;;;;;;;11.37;5.50;;;;;;;;;;5106377;28;20209;-63
2022/12/12 12:18:28;;;;;;;9.40;5.00;;;;;;;;;;5107757;28;20222;-62
2022/12/12 12:21:05;;;;;;;9.17;5.57;;;;;;;;;;5087902;28;20580;-62
2022/12/12 12:23:38;;;;;;;11.13;6.00;;;;;;;;;;5087686;28;20269;-63
2022/12/12 12:26:08;;;;;;;12.63;5.63;;;;;;;;;;5088641;28;20207;-61
2022/12/12 12:28:54;;;;;;;11.43;6.23;;;;;;;;;;5092936;28;20198;-63
2022/12/12 12:31:24;;;;;;;12.60;5.47;;;;;;;;;;5091378;28;20677;-63
2022/12/12 12:33:58;;;;;;;16.70;5.70;;;;;;;;;;5110997;28;20220;-62
2022/12/12 12:36:28;;;;;;;16.33;6.37;;;;;;;;;;5112095;27;20209;-63
2022/12/12 12:39:04;;;;;;;7.27;4.63;;;;;;;;;;5092823;28;20700;-62
2022/12/12 12:41:38;;;;;;;10.57;5.20;;;;;;;;;;5091660;28;20211;-62
2022/12/12 12:44:10;;;;;;;12.23;5.73;;;;;;;;;;5091692;28;20658;-61
2022/12/12 12:46:40;;;;;;;11.77;5.93;;;;;;;;;;5092048;28;20214;-62
2022/12/12 12:49:11;;;;;;;9.57;5.07;;;;;;;;;;5089670;28;20210;-63
2022/12/12 12:51:41;;;;;;;18.53;5.73;;;;;;;;;;5088719;28;20217;-61
2022/12/12 12:54:14;;;;;;;13.03;5.67;;;;;;;;;;5102385;28;20604;-64
2022/12/12 12:56:45;;;;;;;17.50;6.03;;;;;;;;;;5091907;28;20240;-71
2022/12/12 12:59:14;;;;;;;10.20;5.37;;;;;;;;;;5091519;28;20844;-62
2022/12/12 13:01:44;;;;;;;11.43;5.13;;;;;;;;;;5092306;28;20206;-61
2022/12/12 13:04:14;;;;;;;8.67;5.13;;;;;;;;;;5101090;28;20205;-63
2022/12/12 13:06:45;;;;;;;10.10;5.30;;;;;;;;;;5109989;28;21117;-61
2022/12/12 13:09:29;;;;;;;21.93;6.73;;;;;;;;;;5110047;28;20212;-61
2022/12/12 13:12:00;;;;;;;10.17;5.10;;;;;;;;;;5098253;28;20700;-61
2022/12/12 13:14:33;;;;;;;12.13;5.40;;;;;;;;;;5106725;28;20205;-62
2022/12/12 13:17:05;;;;;;;10.00;5.50;;;;;;;;;;5110438;28;20248;-61
2022/12/12 13:19:34;;;;;;;14.77;5.43;;;;;;;;;;5103005;27;20208;-62
2022/12/12 13:22:05;;;;;;;10.80;6.03;;;;;;;;;;5124435;27;20209;-62
2022/12/12 13:24:37;;;;;;;11.93;6.47;;;;;;;;;;5109341;27;20216;-62
2022/12/12 13:27:07;;;;;;;11.20;5.70;;;;;;;;;;5099326;28;20581;-62
2022/12/12 13:29:37;;;;;;;14.70;6.63;;;;;;;;;;5128060;27;20232;-62
2022/12/12 13:32:15;;;;;;;11.33;6.07;;;;;;;;;;5128811;27;20207;-62
2022/12/12 13:34:45;;;;;;;11.37;5.10;;;;;;;;;;5089813;28;20626;-62
2022/12/12 13:37:13;;;;;;;15.10;6.07;;;;;;;;;;5089974;28;20213;-62
2022/12/12 13:39:42;;;;;;;16.67;6.90;;;;;;;;;;5089414;28;20217;-62
2022/12/12 13:42:09;;;;;;;13.40;7.03;;;;;;;;;;5093978;28;20224;-64
2022/12/12 13:44:38;;;;;;;14.43;6.43;;;;;;;;;;5119452;27;20205;-61
2022/12/12 13:47:10;;;;;;;13.47;6.03;;;;;;;;;;5130947;27;20317;-60
2022/12/12 13:49:44;;;;;;;14.60;7.07;;;;;;;;;;5130023;27;20231;-62
2022/12/12 13:52:28;;;;;;;12.57;6.77;;;;;;;;;;5131409;27;20598;-61
2022/12/12 13:55:14;;;;;;;17.60;6.80;;;;;;;;;;5131198;27;20233;-61
2022/12/12 13:57:57;;;;;;;10.37;5.50;;;;;;;;;;5131353;27;20575;-61
2022/12/12 14:00:26;;;;;;;14.17;6.33;;;;;;;;;;5131092;27;20209;-61
2022/12/12 14:02:58;;;;;;;10.47;5.70;;;;;;;;;;5131023;27;20213;-61
2022/12/12 14:05:28;;;;;;;10.43;5.37;;;;;;;;;;5130866;27;20201;-61
2022/12/12 14:07:58;;;;;;;12.90;5.50;;;;;;;;;;5130831;27;20229;-61
2022/12/12 14:10:27;;;;;;;16.60;6.43;;;;;;;;;;5130890;27;20690;-62
2022/12/12 14:12:54;;;;;;;18.00;7.10;;;;;;;;;;5101452;27;20673;-61
2022/12/12 14:15:23;;;;;;;16.50;6.63;;;;;;;;;;5102712;28;20210;-61
2022/12/12 14:17:57;;;;;;;17.07;5.83;;;;;;;;;;5110152;28;20216;-61
2022/12/12 14:20:26;;;;;;;16.30;7.13;;;;;;;;;;5106412;28;20288;-61
2022/12/12 14:23:10;;;;;;;15.03;6.13;;;;;;;;;;5097989;28;20209;-61
2022/12/12 14:25:38;;;;;;;13.80;6.93;;;;;;;;;;5109996;28;20213;-60
2022/12/12 14:28:16;;;;;;;16.07;6.73;;;;;;;;;;5095689;28;20206;-60
2022/12/12 14:30:45;;;;;;;15.23;6.50;;;;;;;;;;5101984;28;20226;-61
2022/12/12 14:33:25;;;;;;;14.47;6.37;;;;;;;;;;5098015;28;20206;-61
2022/12/12 14:35:55;;;;;;;13.23;5.80;;;;;;;;;;5088614;28;20222;-60
2022/12/12 14:38:29;;;;;;;12.23;6.60;;;;;;;;;;5086984;28;20976;-68
2022/12/12 14:40:59;;;;;;;15.83;7.00;;;;;;;;;;5098608;28;20202;-61
2022/12/12 14:43:27;;;;;;;14.60;6.30;;;;;;;;;;5107127;28;20209;-61
2022/12/12 14:45:56;;;;;;;11.77;5.30;;;;;;;;;;5108255;27;20210;-61
2022/12/12 14:48:25;;;;;;;13.83;5.97;;;;;;;;;;5100977;28;20201;-62
2022/12/12 14:50:58;;;;;;;5.40;4.20;;;;;;;;;;5107045;28;20221;-62
2022/12/12 14:53:27;;;;;;;11.83;5.23;;;;;;;;;;5109361;28;20236;-61
2022/12/12 14:55:56;;;;;;;12.47;5.37;;;;;;;;;;5102217;28;20233;-61
2022/12/12 14:58:25;;;;;;;7.03;3.97;;;;;;;;;;5098289;28;20235;-61
2022/12/12 15:00:54;;;;;;;17.50;5.83;;;;;;;;;;5092182;28;20229;-61